Time;durP1;ratioP1;P1;durP2;ratioP2;P2;SDS_P1;SDS_P2;PMS_P1;PMS_P2;Temp;Humidity;BMP_temperature;BMP_pressure;BME280_temperature;BME280_humidity;BME280_pressure;Samples;Min_cycle;Max_cycle;Signal;HPM_P1;HPM_P2
2022/11/07 00:00:30;;;;;;;2.20;2.00;;;;;;;;;;4928131;29;20184;-81
2022/11/07 00:03:35;;;;;;;2.63;2.03;;;;;;;;;;4928327;29;20188;-81
2022/11/07 00:06:40;;;;;;;2.50;2.00;;;;;;;;;;4929776;29;20254;-80
2022/11/07 00:09:44;;;;;;;2.90;2.00;;;;;;;;;;4931427;29;20208;-81
2022/11/07 00:12:48;;;;;;;2.50;1.90;;;;;;;;;;4931604;29;20240;-80
2022/11/07 00:15:53;;;;;;;2.70;1.87;;;;;;;;;;4942448;29;20208;-81
2022/11/07 00:18:57;;;;;;;2.60;2.00;;;;;;;;;;4977864;23;20576;-78
2022/11/07 00:22:01;;;;;;;2.63;1.93;;;;;;;;;;4996990;28;20222;-78
2022/11/07 00:25:06;;;;;;;2.20;1.90;;;;;;;;;;4996511;28;20182;-76
2022/11/07 00:28:09;;;;;;;2.23;1.87;;;;;;;;;;4997257;28;20186;-77
2022/11/07 00:31:14;;;;;;;2.00;1.80;;;;;;;;;;4995897;28;20218;-78
2022/11/07 00:34:18;;;;;;;2.77;2.23;;;;;;;;;;4997104;28;20198;-78
2022/11/07 00:37:22;;;;;;;2.83;2.17;;;;;;;;;;4990624;28;20206;-75
2022/11/07 00:40:27;;;;;;;3.70;1.83;;;;;;;;;;4996834;28;20202;-79
2022/11/07 00:43:31;;;;;;;2.77;1.67;;;;;;;;;;4996713;28;20182;-77
2022/11/07 00:46:35;;;;;;;2.60;1.50;;;;;;;;;;4985084;28;20187;-77
2022/11/07 00:49:39;;;;;;;2.50;2.00;;;;;;;;;;4984457;28;20205;-78
2022/11/07 00:52:43;;;;;;;2.53;2.03;;;;;;;;;;4988682;28;20230;-77
2022/11/07 00:55:48;;;;;;;2.23;1.80;;;;;;;;;;4978846;28;20206;-77
2022/11/07 00:58:54;;;;;;;2.53;1.70;;;;;;;;;;4978060;28;20187;-77
2022/11/07 01:01:58;;;;;;;2.30;1.53;;;;;;;;;;4977471;28;20215;-77
2022/11/07 01:05:11;;;;;;;2.00;1.67;;;;;;;;;;4977278;28;20187;-77
2022/11/07 01:08:15;;;;;;;1.93;1.60;;;;;;;;;;4976490;28;20195;-77
2022/11/07 01:11:20;;;;;;;1.90;1.60;;;;;;;;;;4977352;28;20231;-77
2022/11/07 01:14:25;;;;;;;2.27;1.50;;;;;;;;;;4981027;28;20265;-77
2022/11/07 01:17:31;;;;;;;1.93;1.60;;;;;;;;;;4980290;28;20641;-77
2022/11/07 01:20:35;;;;;;;2.97;1.80;;;;;;;;;;4981073;28;20187;-77
2022/11/07 01:23:39;;;;;;;1.97;1.70;;;;;;;;;;4981709;28;20183;-77
2022/11/07 01:26:47;;;;;;;2.00;1.67;;;;;;;;;;4981810;28;20182;-77
2022/11/07 01:29:52;;;;;;;1.90;1.70;;;;;;;;;;4981250;28;20253;-77
2022/11/07 01:32:56;;;;;;;1.57;1.47;;;;;;;;;;4968713;28;20215;-77
2022/11/07 01:36:07;;;;;;;2.50;1.77;;;;;;;;;;4979976;28;20183;-77
2022/11/07 01:39:12;;;;;;;2.37;1.93;;;;;;;;;;4979776;28;20646;-77
2022/11/07 01:42:16;;;;;;;2.30;1.50;;;;;;;;;;4979095;28;20215;-77
2022/11/07 01:45:27;;;;;;;1.93;1.43;;;;;;;;;;4978512;28;20183;-77
2022/11/07 01:48:31;;;;;;;1.77;1.50;;;;;;;;;;4977528;28;20191;-76
2022/11/07 01:51:45;;;;;;;2.13;1.40;;;;;;;;;;4966099;28;20222;-77
2022/11/07 01:55:01;;;;;;;1.73;1.30;;;;;;;;;;4976745;28;20187;-76
2022/11/07 01:58:07;;;;;;;3.70;1.33;;;;;;;;;;4977347;28;20651;-77
2022/11/07 02:01:12;;;;;;;1.83;1.60;;;;;;;;;;4976257;28;20226;-77
2022/11/07 02:04:19;;;;;;;2.73;1.47;;;;;;;;;;4976642;28;20187;-77
2022/11/07 02:07:24;;;;;;;2.70;1.40;;;;;;;;;;4976000;28;20203;-77
2022/11/07 02:10:28;;;;;;;2.80;1.50;;;;;;;;;;4976959;28;20194;-77
2022/11/07 02:13:32;;;;;;;2.00;1.80;;;;;;;;;;4975384;28;20215;-76
2022/11/07 02:16:36;;;;;;;3.50;1.60;;;;;;;;;;4976031;28;20183;-77
2022/11/07 02:19:42;;;;;;;2.30;1.60;;;;;;;;;;4976141;28;20210;-76
2022/11/07 02:23:04;;;;;;;3.33;1.60;;;;;;;;;;4975465;28;20219;-76
2022/11/07 02:26:08;;;;;;;1.60;1.43;;;;;;;;;;4975738;28;20187;-76
2022/11/07 02:29:13;;;;;;;2.30;1.60;;;;;;;;;;4974524;28;20646;-76
2022/11/07 02:32:16;;;;;;;2.13;1.70;;;;;;;;;;4993102;28;20225;-76
2022/11/07 02:35:39;;;;;;;2.73;1.50;;;;;;;;;;4983668;28;20186;-76
2022/11/07 02:38:47;;;;;;;2.73;1.90;;;;;;;;;;4995274;28;20186;-76
2022/11/07 02:41:53;;;;;;;1.77;1.50;;;;;;;;;;4982939;28;20558;-76
2022/11/07 02:44:57;;;;;;;3.87;1.40;;;;;;;;;;4982906;28;20187;-76
2022/11/07 02:48:02;;;;;;;3.40;1.60;;;;;;;;;;4983268;28;20186;-76
2022/11/07 02:51:06;;;;;;;2.03;1.50;;;;;;;;;;4995206;28;20222;-76
2022/11/07 02:54:10;;;;;;;1.83;1.67;;;;;;;;;;4994767;28;20210;-76
2022/11/07 02:57:14;;;;;;;3.30;1.70;;;;;;;;;;4994698;28;20182;-76
2022/11/07 03:00:18;;;;;;;1.43;1.20;;;;;;;;;;4993924;28;20205;-76
2022/11/07 03:03:22;;;;;;;4.10;1.87;;;;;;;;;;4982531;28;20665;-76
2022/11/07 03:06:26;;;;;;;1.77;1.43;;;;;;;;;;4993978;28;20676;-77
2022/11/07 03:09:31;;;;;;;1.70;1.50;;;;;;;;;;4993665;28;20206;-77
2022/11/07 03:12:35;;;;;;;1.60;1.50;;;;;;;;;;4993373;28;20230;-77
2022/11/07 03:15:39;;;;;;;1.50;1.30;;;;;;;;;;4993576;28;20202;-77
2022/11/07 03:18:43;;;;;;;2.00;1.30;;;;;;;;;;4981727;28;20217;-77
2022/11/07 03:21:51;;;;;;;3.67;1.80;;;;;;;;;;4981973;28;20217;-76
2022/11/07 03:24:54;;;;;;;1.77;1.50;;;;;;;;;;4993692;28;20182;-76
2022/11/07 03:27:59;;;;;;;1.60;1.30;;;;;;;;;;4994103;28;20190;-76
2022/11/07 03:31:03;;;;;;;2.57;1.47;;;;;;;;;;4981964;28;20221;-77
2022/11/07 03:34:08;;;;;;;1.33;1.23;;;;;;;;;;4982342;28;20230;-77
2022/11/07 03:37:12;;;;;;;1.53;1.30;;;;;;;;;;4994172;28;20206;-77
2022/11/07 03:40:16;;;;;;;3.17;1.60;;;;;;;;;;4982026;28;20178;-76
2022/11/07 03:43:20;;;;;;;4.83;1.53;;;;;;;;;;4982022;28;20510;-76
2022/11/07 03:46:25;;;;;;;2.43;1.80;;;;;;;;;;4982062;28;20186;-77
2022/11/07 03:49:29;;;;;;;2.50;1.50;;;;;;;;;;4981701;28;20202;-76
2022/11/07 03:52:33;;;;;;;1.73;1.53;;;;;;;;;;4993449;28;20225;-76
2022/11/07 03:55:39;;;;;;;1.60;1.50;;;;;;;;;;4993745;28;20202;-76
2022/11/07 03:58:43;;;;;;;1.97;1.63;;;;;;;;;;4992989;28;20209;-76
2022/11/07 04:01:47;;;;;;;3.23;1.60;;;;;;;;;;4993741;28;20218;-76
2022/11/07 04:04:52;;;;;;;3.93;1.47;;;;;;;;;;4993168;28;20178;-76
2022/11/07 04:07:56;;;;;;;2.03;1.63;;;;;;;;;;4993353;28;20178;-76
2022/11/07 04:11:00;;;;;;;4.23;1.47;;;;;;;;;;4992871;28;20565;-76
2022/11/07 04:17:28;;;;;;;4.73;1.60;;;;;;;;;;4992610;28;20187;-76
2022/11/07 04:20:32;;;;;;;3.03;1.40;;;;;;;;;;4993184;28;20198;-77
2022/11/07 04:23:36;;;;;;;2.13;1.70;;;;;;;;;;4992653;28;20194;-76
2022/11/07 04:30:19;;;;;;;2.97;1.70;;;;;;;;;;4992656;28;20190;-76
2022/11/07 04:33:23;;;;;;;3.67;1.60;;;;;;;;;;4981554;28;20554;-76
2022/11/07 04:36:27;;;;;;;1.90;1.60;;;;;;;;;;4993816;28;20190;-76
2022/11/07 04:39:31;;;;;;;1.87;1.70;;;;;;;;;;4993166;28;20190;-77
2022/11/07 04:42:36;;;;;;;2.83;1.50;;;;;;;;;;4981278;28;20697;-76
2022/11/07 04:45:39;;;;;;;2.77;1.67;;;;;;;;;;4993883;28;20542;-75
2022/11/07 04:48:43;;;;;;;1.50;1.40;;;;;;;;;;4993670;28;20518;-76
2022/11/07 04:51:48;;;;;;;2.97;1.70;;;;;;;;;;4993241;28;20229;-76
2022/11/07 04:54:52;;;;;;;2.10;1.50;;;;;;;;;;4996236;28;20210;-76
2022/11/07 04:57:56;;;;;;;1.83;1.47;;;;;;;;;;4996535;28;20190;-76
2022/11/07 05:01:00;;;;;;;2.27;1.90;;;;;;;;;;4984684;28;20716;-76
2022/11/07 05:04:04;;;;;;;2.43;1.53;;;;;;;;;;4995833;28;20661;-76
2022/11/07 05:07:09;;;;;;;2.30;1.70;;;;;;;;;;4996643;28;20201;-76
2022/11/07 05:10:25;;;;;;;2.83;1.53;;;;;;;;;;4996495;28;20186;-76
2022/11/07 05:13:29;;;;;;;2.37;1.60;;;;;;;;;;4984592;28;20673;-76
2022/11/07 05:16:34;;;;;;;1.93;1.50;;;;;;;;;;4996544;28;20182;-76
2022/11/07 05:19:38;;;;;;;5.77;1.47;;;;;;;;;;4984246;28;20210;-77
2022/11/07 05:26:05;;;;;;;3.03;1.40;;;;;;;;;;4996401;28;20187;-76
2022/11/07 05:29:09;;;;;;;1.73;1.47;;;;;;;;;;4973700;28;20182;-76
2022/11/07 05:32:14;;;;;;;2.73;1.50;;;;;;;;;;4983811;28;20222;-76
2022/11/07 05:35:18;;;;;;;3.73;3.27;;;;;;;;;;4995870;28;20645;-76
2022/11/07 05:38:22;;;;;;;3.33;2.03;;;;;;;;;;4984005;28;20186;-76
2022/11/07 05:41:26;;;;;;;2.23;1.40;;;;;;;;;;4984003;28;20226;-76
2022/11/07 05:44:30;;;;;;;2.23;1.63;;;;;;;;;;4972890;28;20186;-76
2022/11/07 05:47:34;;;;;;;2.17;1.60;;;;;;;;;;4995705;28;20194;-76
2022/11/07 05:50:39;;;;;;;3.93;1.80;;;;;;;;;;4995389;28;20190;-76
2022/11/07 05:53:43;;;;;;;2.30;1.90;;;;;;;;;;4983662;28;20214;-76
2022/11/07 05:56:47;;;;;;;2.40;1.63;;;;;;;;;;4994829;28;20652;-78
2022/11/07 05:59:51;;;;;;;2.97;1.63;;;;;;;;;;4983509;28;20186;-77
2022/11/07 06:02:59;;;;;;;2.37;1.83;;;;;;;;;;4994825;28;20633;-76
2022/11/07 06:06:04;;;;;;;2.07;1.87;;;;;;;;;;4983308;28;20186;-76
2022/11/07 06:09:08;;;;;;;2.03;1.50;;;;;;;;;;4992569;28;20218;-76
2022/11/07 06:12:12;;;;;;;2.70;1.80;;;;;;;;;;4981083;28;20229;-77
2022/11/07 06:15:16;;;;;;;1.67;1.50;;;;;;;;;;4981206;28;20527;-77
2022/11/07 06:18:21;;;;;;;5.60;2.73;;;;;;;;;;4980748;28;20561;-76
2022/11/07 06:21:25;;;;;;;5.07;2.30;;;;;;;;;;4970994;28;20217;-76
2022/11/07 06:24:30;;;;;;;2.73;1.83;;;;;;;;;;4993952;28;20174;-76
2022/11/07 06:27:34;;;;;;;2.70;2.00;;;;;;;;;;5012291;22;20226;-80
2022/11/07 06:30:39;;;;;;;2.80;1.93;;;;;;;;;;4983231;28;20182;-81
2022/11/07 06:33:43;;;;;;;3.60;2.13;;;;;;;;;;4980808;28;20206;-80
2022/11/07 06:36:54;;;;;;;2.53;2.00;;;;;;;;;;5003960;28;20684;-81
2022/11/07 06:39:59;;;;;;;4.27;1.73;;;;;;;;;;4979968;28;20186;-80
2022/11/07 06:43:10;;;;;;;2.20;1.73;;;;;;;;;;4990245;28;20538;-81
2022/11/07 06:46:16;;;;;;;1.60;1.50;;;;;;;;;;4980309;28;20637;-80
2022/11/07 06:49:20;;;;;;;5.97;1.37;;;;;;;;;;4969339;28;20194;-80
2022/11/07 06:52:24;;;;;;;1.87;1.60;;;;;;;;;;4980590;28;20229;-80
2022/11/07 06:55:29;;;;;;;2.80;1.90;;;;;;;;;;4980870;28;20214;-82
2022/11/07 06:58:33;;;;;;;2.57;2.03;;;;;;;;;;4979128;28;20182;-80
2022/11/07 07:01:38;;;;;;;5.57;1.93;;;;;;;;;;4979204;28;20217;-80
2022/11/07 07:04:42;;;;;;;3.50;2.00;;;;;;;;;;5001968;28;20649;-80
2022/11/07 07:07:47;;;;;;;5.63;5.03;;;;;;;;;;4990794;28;20637;-80
2022/11/07 07:10:52;;;;;;;4.03;2.80;;;;;;;;;;4976504;28;20222;-80
2022/11/07 07:13:56;;;;;;;3.03;2.50;;;;;;;;;;4988360;28;20213;-81
2022/11/07 07:17:01;;;;;;;8.23;3.93;;;;;;;;;;4979194;28;20194;-80
2022/11/07 07:20:06;;;;;;;4.93;2.60;;;;;;;;;;4981551;28;20317;-80
2022/11/07 07:23:10;;;;;;;3.80;2.10;;;;;;;;;;5011658;28;20541;-80
2022/11/07 07:26:15;;;;;;;3.60;1.90;;;;;;;;;;5022493;28;20209;-82
2022/11/07 07:29:20;;;;;;;2.43;2.00;;;;;;;;;;4998235;28;20212;-80
2022/11/07 07:32:24;;;;;;;2.57;1.40;;;;;;;;;;4997916;28;20225;-80
2022/11/07 07:35:28;;;;;;;3.83;3.00;;;;;;;;;;5000925;28;20221;-82
2022/11/07 07:38:32;;;;;;;1.70;1.50;;;;;;;;;;4986592;28;20185;-80
2022/11/07 07:41:36;;;;;;;1.77;1.57;;;;;;;;;;5000582;28;20229;-80
2022/11/07 07:44:41;;;;;;;4.33;3.57;;;;;;;;;;4968418;28;20186;-81
2022/11/07 07:47:45;;;;;;;6.20;4.00;;;;;;;;;;4990833;28;20522;-81
2022/11/07 07:50:49;;;;;;;3.67;2.47;;;;;;;;;;4976603;28;20244;-81
2022/11/07 07:53:53;;;;;;;3.90;3.50;;;;;;;;;;4994428;28;20225;-81
2022/11/07 07:56:57;;;;;;;4.70;2.43;;;;;;;;;;4977799;28;20186;-81
2022/11/07 08:00:02;;;;;;;2.80;1.90;;;;;;;;;;4979175;28;20194;-80
2022/11/07 08:03:16;;;;;;;3.83;2.30;;;;;;;;;;4999535;28;20202;-80
2022/11/07 08:06:20;;;;;;;2.07;1.80;;;;;;;;;;4994241;28;20194;-80
2022/11/07 08:09:24;;;;;;;2.23;1.67;;;;;;;;;;4978967;28;20549;-80
2022/11/07 08:12:29;;;;;;;1.70;1.60;;;;;;;;;;4996848;28;20695;-80
2022/11/07 08:15:33;;;;;;;2.30;1.87;;;;;;;;;;4996964;28;20221;-81
2022/11/07 08:18:38;;;;;;;2.70;1.70;;;;;;;;;;4987792;28;20201;-80
2022/11/07 08:21:43;;;;;;;1.93;1.50;;;;;;;;;;4988879;28;20225;-80
2022/11/07 08:24:48;;;;;;;2.40;1.70;;;;;;;;;;4973901;28;20201;-81
2022/11/07 08:27:52;;;;;;;2.60;2.40;;;;;;;;;;4998987;28;20209;-80
2022/11/07 08:30:58;;;;;;;4.73;2.97;;;;;;;;;;4992459;28;20226;-80
2022/11/07 08:34:02;;;;;;;3.57;2.07;;;;;;;;;;5003359;28;20214;-81
2022/11/07 08:37:06;;;;;;;11.47;9.27;;;;;;;;;;4992219;28;20190;-81
2022/11/07 08:40:11;;;;;;;7.13;6.43;;;;;;;;;;4986469;28;20684;-81
2022/11/07 08:43:16;;;;;;;6.83;4.13;;;;;;;;;;4997152;28;20657;-81
2022/11/07 08:46:21;;;;;;;4.03;1.93;;;;;;;;;;5001131;28;20198;-81
2022/11/07 08:49:25;;;;;;;3.33;1.77;;;;;;;;;;5013226;28;20189;-82
2022/11/07 08:52:29;;;;;;;1.90;1.40;;;;;;;;;;4988614;28;20684;-81
2022/11/07 08:55:34;;;;;;;2.43;1.40;;;;;;;;;;4994802;28;20214;-81
2022/11/07 08:58:38;;;;;;;1.73;1.10;;;;;;;;;;4998973;28;20202;-81
2022/11/07 09:01:43;;;;;;;2.33;1.40;;;;;;;;;;4991100;28;20222;-81
2022/11/07 09:04:47;;;;;;;2.00;1.67;;;;;;;;;;4983590;28;20549;-81
2022/11/07 09:07:51;;;;;;;13.07;11.80;;;;;;;;;;4974713;28;20198;-81
2022/11/07 09:11:01;;;;;;;20.47;18.37;;;;;;;;;;4993749;28;20233;-82
2022/11/07 09:14:05;;;;;;;6.20;5.67;;;;;;;;;;4983399;28;20190;-81
2022/11/07 09:17:09;;;;;;;3.20;2.90;;;;;;;;;;4993350;28;20186;-81
2022/11/07 09:20:14;;;;;;;3.20;1.60;;;;;;;;;;4980758;28;20186;-81
2022/11/07 09:23:18;;;;;;;2.13;1.40;;;;;;;;;;4971128;28;20182;-80
2022/11/07 09:26:22;;;;;;;2.40;1.43;;;;;;;;;;4994140;28;20205;-81
2022/11/07 09:29:27;;;;;;;4.23;1.13;;;;;;;;;;5013424;28;20221;-81
2022/11/07 09:32:31;;;;;;;2.43;1.20;;;;;;;;;;5001614;28;20233;-80
2022/11/07 09:35:35;;;;;;;6.40;4.27;;;;;;;;;;5003450;28;20213;-81
2022/11/07 09:38:40;;;;;;;14.07;12.37;;;;;;;;;;4990716;28;20185;-81
2022/11/07 09:42:07;;;;;;;4.90;4.37;;;;;;;;;;4991715;28;20235;-82
2022/11/07 09:45:12;;;;;;;3.23;1.50;;;;;;;;;;4988583;28;20657;-82
2022/11/07 09:48:23;;;;;;;3.13;1.40;;;;;;;;;;4999311;28;20194;-82
2022/11/07 09:51:34;;;;;;;2.93;1.10;;;;;;;;;;4999395;28;20225;-81
2022/11/07 09:54:44;;;;;;;2.27;1.10;;;;;;;;;;4990062;28;20221;-82
2022/11/07 09:57:53;;;;;;;1.13;0.90;;;;;;;;;;4989226;28;20197;-81
2022/11/07 10:01:01;;;;;;;1.97;1.10;;;;;;;;;;5002333;28;20217;-81
2022/11/07 10:04:05;;;;;;;4.37;1.10;;;;;;;;;;5000263;28;20182;-81
2022/11/07 10:07:22;;;;;;;1.90;1.10;;;;;;;;;;5000245;28;20186;-81
2022/11/07 10:10:35;;;;;;;4.00;1.00;;;;;;;;;;4988334;28;20186;-84
2022/11/07 10:14:00;;;;;;;4.13;1.50;;;;;;;;;;4999928;28;20521;-82
2022/11/07 10:17:28;;;;;;;3.57;1.90;;;;;;;;;;5011258;28;20182;-81
2022/11/07 10:21:20;;;;;;;4.30;2.20;;;;;;;;;;5013473;28;20181;-81
2022/11/07 10:24:27;;;;;;;3.33;1.63;;;;;;;;;;4988484;28;20213;-81
2022/11/07 10:27:39;;;;;;;1.87;1.13;;;;;;;;;;4987938;28;20213;-82
2022/11/07 10:30:47;;;;;;;3.07;1.03;;;;;;;;;;5011640;28;20633;-82
2022/11/07 10:33:56;;;;;;;3.13;0.90;;;;;;;;;;5011797;28;20201;-81
2022/11/07 10:37:00;;;;;;;2.53;1.10;;;;;;;;;;4996271;28;20178;-81
2022/11/07 10:40:18;;;;;;;1.40;1.00;;;;;;;;;;5000141;28;20182;-81
2022/11/07 10:43:33;;;;;;;3.07;1.00;;;;;;;;;;5000038;28;20252;-81
2022/11/07 10:46:43;;;;;;;1.63;0.77;;;;;;;;;;4998834;28;20190;-81
2022/11/07 10:50:01;;;;;;;2.47;1.17;;;;;;;;;;4997033;28;20189;-81
2022/11/07 10:53:08;;;;;;;2.33;1.30;;;;;;;;;;4984806;28;20186;-81
2022/11/07 10:56:13;;;;;;;2.03;1.40;;;;;;;;;;4985769;28;20209;-81
2022/11/07 10:59:23;;;;;;;12.77;8.77;;;;;;;;;;4997245;28;20820;-81
2022/11/07 11:02:31;;;;;;;11.17;6.47;;;;;;;;;;4997211;28;20233;-81
2022/11/07 11:05:38;;;;;;;15.07;10.43;;;;;;;;;;4985651;28;20198;-81
2022/11/07 11:08:44;;;;;;;6.33;5.47;;;;;;;;;;5019852;28;20196;-80
2022/11/07 11:11:50;;;;;;;3.87;1.63;;;;;;;;;;5020128;28;20692;-81
2022/11/07 11:15:20;;;;;;;2.17;0.97;;;;;;;;;;4996834;28;20225;-81
2022/11/07 11:18:24;;;;;;;4.60;1.23;;;;;;;;;;5019054;28;20181;-81
2022/11/07 11:21:44;;;;;;;3.37;1.00;;;;;;;;;;4998881;28;20565;-81
2022/11/07 11:25:13;;;;;;;3.70;1.10;;;;;;;;;;4999228;28;20553;-80
2022/11/07 11:28:25;;;;;;;2.30;1.13;;;;;;;;;;5005843;28;20229;-80
2022/11/07 11:31:35;;;;;;;3.03;1.00;;;;;;;;;;4989736;28;20217;-81
2022/11/07 11:35:23;;;;;;;4.27;0.80;;;;;;;;;;5001353;28;20186;-80
2022/11/07 11:38:29;;;;;;;5.03;0.90;;;;;;;;;;5008283;28;20198;-80
2022/11/07 11:41:33;;;;;;;4.67;0.90;;;;;;;;;;4998567;28;20557;-80
2022/11/07 11:44:40;;;;;;;4.03;1.20;;;;;;;;;;4998557;28;20181;-80
2022/11/07 11:48:23;;;;;;;3.27;1.00;;;;;;;;;;4999761;28;20182;-80
2022/11/07 11:51:47;;;;;;;2.97;1.20;;;;;;;;;;4988110;28;20221;-81
2022/11/07 11:54:53;;;;;;;4.80;1.00;;;;;;;;;;4999384;28;20189;-80
2022/11/07 11:58:01;;;;;;;3.73;0.90;;;;;;;;;;5000957;28;20205;-81
2022/11/07 12:01:23;;;;;;;2.97;0.90;;;;;;;;;;4991377;28;20216;-80
2022/11/07 12:04:36;;;;;;;2.73;0.97;;;;;;;;;;5005915;28;20182;-81
2022/11/07 12:07:54;;;;;;;2.33;1.00;;;;;;;;;;5005181;28;20185;-81
2022/11/07 12:11:29;;;;;;;1.97;0.90;;;;;;;;;;5003011;28;20224;-81
2022/11/07 12:15:03;;;;;;;1.33;0.70;;;;;;;;;;4992364;28;20189;-81
2022/11/07 12:18:40;;;;;;;2.90;0.80;;;;;;;;;;4993354;28;20185;-79
2022/11/07 12:22:26;;;;;;;2.43;0.80;;;;;;;;;;5004409;28;20213;-80
2022/11/07 12:25:44;;;;;;;2.13;0.80;;;;;;;;;;4990068;28;20186;-81
2022/11/07 12:29:06;;;;;;;4.17;0.90;;;;;;;;;;5016799;23;20233;-75
2022/11/07 12:32:27;;;;;;;1.87;0.90;;;;;;;;;;4997325;28;20225;-75
2022/11/07 12:35:57;;;;;;;3.00;0.70;;;;;;;;;;4997378;28;20214;-74
2022/11/07 12:39:33;;;;;;;3.17;0.90;;;;;;;;;;4996527;28;20506;-76
2022/11/07 12:42:52;;;;;;;2.33;0.83;;;;;;;;;;4996353;28;20226;-76
2022/11/07 12:46:20;;;;;;;2.70;0.70;;;;;;;;;;4995986;28;20182;-76
2022/11/07 12:49:30;;;;;;;2.73;0.77;;;;;;;;;;4995860;28;20194;-76
2022/11/07 12:53:01;;;;;;;6.00;1.20;;;;;;;;;;4996303;28;20573;-75
2022/11/07 12:56:11;;;;;;;3.23;0.90;;;;;;;;;;4996495;28;20209;-76
2022/11/07 12:59:24;;;;;;;2.47;1.37;;;;;;;;;;4996500;28;20625;-76
2022/11/07 13:02:55;;;;;;;5.50;1.30;;;;;;;;;;4996132;28;20704;-76
2022/11/07 13:06:30;;;;;;;3.20;1.87;;;;;;;;;;5006853;28;20186;-76
2022/11/07 13:09:43;;;;;;;4.47;1.27;;;;;;;;;;4995758;28;20195;-75
2022/11/07 13:12:59;;;;;;;4.40;1.10;;;;;;;;;;4983298;28;20237;-75
2022/11/07 13:16:06;;;;;;;1.70;0.97;;;;;;;;;;4996422;28;20217;-75
2022/11/07 13:19:28;;;;;;;3.10;0.80;;;;;;;;;;4995029;28;20198;-75
2022/11/07 13:22:38;;;;;;;3.53;0.90;;;;;;;;;;4983745;28;20701;-75
2022/11/07 13:25:42;;;;;;;3.47;1.07;;;;;;;;;;4995947;28;20190;-76
2022/11/07 13:29:00;;;;;;;3.90;0.90;;;;;;;;;;4995659;28;20202;-76
2022/11/07 13:32:12;;;;;;;3.80;0.97;;;;;;;;;;4995615;28;20222;-75
2022/11/07 13:35:22;;;;;;;3.63;1.00;;;;;;;;;;4995250;28;20633;-75
2022/11/07 13:38:28;;;;;;;1.93;0.70;;;;;;;;;;4994613;28;20538;-76
2022/11/07 13:41:33;;;;;;;3.50;2.90;;;;;;;;;;4988627;28;20222;-78
2022/11/07 13:44:37;;;;;;;1.63;0.80;;;;;;;;;;4997849;28;20210;-77
2022/11/07 13:47:43;;;;;;;2.20;0.90;;;;;;;;;;4997261;28;20215;-78
2022/11/07 13:50:56;;;;;;;2.67;1.13;;;;;;;;;;4995627;28;20229;-77
2022/11/07 13:54:13;;;;;;;1.43;1.20;;;;;;;;;;4983077;28;20219;-77
2022/11/07 13:57:29;;;;;;;2.13;1.00;;;;;;;;;;4985735;28;20226;-79
2022/11/07 14:00:34;;;;;;;2.30;0.80;;;;;;;;;;4999601;28;20182;-78
2022/11/07 14:03:38;;;;;;;2.43;1.33;;;;;;;;;;4998108;28;20182;-77
2022/11/07 14:06:43;;;;;;;2.80;0.93;;;;;;;;;;4992842;28;20689;-78
2022/11/07 14:09:54;;;;;;;2.13;0.90;;;;;;;;;;4967155;28;20182;-78
2022/11/07 14:13:09;;;;;;;1.17;0.80;;;;;;;;;;4978276;28;20535;-78
2022/11/07 14:16:19;;;;;;;3.53;0.83;;;;;;;;;;4996234;28;20226;-78
2022/11/07 14:19:25;;;;;;;2.37;0.70;;;;;;;;;;4997349;28;20530;-77
2022/11/07 14:22:29;;;;;;;7.10;1.03;;;;;;;;;;4995584;28;20222;-77
2022/11/07 14:25:34;;;;;;;1.83;0.87;;;;;;;;;;4994806;28;20186;-78
2022/11/07 14:28:38;;;;;;;3.37;1.20;;;;;;;;;;4995936;28;20210;-77
2022/11/07 14:31:44;;;;;;;2.60;0.60;;;;;;;;;;4985530;28;20217;-78
2022/11/07 14:34:50;;;;;;;1.87;0.70;;;;;;;;;;4996170;28;20190;-78
2022/11/07 14:37:56;;;;;;;1.90;0.70;;;;;;;;;;4984495;28;20182;-78
2022/11/07 14:41:01;;;;;;;4.20;0.90;;;;;;;;;;4995582;28;20213;-77
2022/11/07 14:44:06;;;;;;;1.30;0.67;;;;;;;;;;4984746;28;20186;-78
2022/11/07 14:47:14;;;;;;;2.10;0.70;;;;;;;;;;4985074;28;20182;-78
2022/11/07 14:50:26;;;;;;;2.33;1.07;;;;;;;;;;4995396;28;20186;-78
2022/11/07 14:53:37;;;;;;;2.47;0.73;;;;;;;;;;4995523;28;20190;-78
2022/11/07 14:56:45;;;;;;;4.60;1.10;;;;;;;;;;4995979;28;20218;-78
2022/11/07 14:59:49;;;;;;;6.30;4.03;;;;;;;;;;4984787;28;20187;-78
2022/11/07 15:02:56;;;;;;;15.53;10.47;;;;;;;;;;4994877;28;20187;-78
2022/11/07 15:06:00;;;;;;;23.23;17.73;;;;;;;;;;4983248;28;20204;-78
2022/11/07 15:09:06;;;;;;;12.47;10.83;;;;;;;;;;4995898;28;20262;-77
2022/11/07 15:12:17;;;;;;;6.60;4.87;;;;;;;;;;4994330;28;20234;-77
2022/11/07 15:15:34;;;;;;;2.23;1.60;;;;;;;;;;4994211;28;20542;-78
2022/11/07 15:18:41;;;;;;;5.93;1.27;;;;;;;;;;4994352;28;20179;-77
2022/11/07 15:21:59;;;;;;;4.57;0.93;;;;;;;;;;4982815;28;20225;-77
2022/11/07 15:25:23;;;;;;;2.73;0.93;;;;;;;;;;4982313;28;20198;-77
2022/11/07 15:28:30;;;;;;;4.30;1.00;;;;;;;;;;4993230;28;20218;-78
2022/11/07 15:31:38;;;;;;;6.07;1.10;;;;;;;;;;4994329;28;20596;-78
2022/11/07 15:34:43;;;;;;;3.47;1.20;;;;;;;;;;4994495;28;20186;-78
2022/11/07 15:37:56;;;;;;;3.70;1.20;;;;;;;;;;4983305;28;20214;-78
2022/11/07 15:41:03;;;;;;;5.70;1.20;;;;;;;;;;4985246;28;20214;-78
2022/11/07 15:44:07;;;;;;;5.77;1.40;;;;;;;;;;4996024;28;20190;-78
2022/11/07 15:47:20;;;;;;;3.87;1.13;;;;;;;;;;4985105;28;20186;-78
2022/11/07 15:50:24;;;;;;;7.80;1.40;;;;;;;;;;4994235;28;20193;-77
2022/11/07 15:53:29;;;;;;;2.80;1.03;;;;;;;;;;4995878;28;20178;-78
2022/11/07 15:56:33;;;;;;;3.30;1.00;;;;;;;;;;4983204;28;20206;-78
2022/11/07 15:59:37;;;;;;;2.20;1.13;;;;;;;;;;4994671;28;20637;-77
2022/11/07 16:02:41;;;;;;;3.57;1.30;;;;;;;;;;4993883;28;20221;-78
2022/11/07 16:05:48;;;;;;;3.80;1.00;;;;;;;;;;4989154;28;20205;-77
2022/11/07 16:08:53;;;;;;;2.10;1.17;;;;;;;;;;4993528;28;20654;-78
2022/11/07 16:11:57;;;;;;;1.47;0.90;;;;;;;;;;4993879;28;20234;-78
2022/11/07 16:15:01;;;;;;;1.40;0.90;;;;;;;;;;4982226;28;20190;-78
2022/11/07 16:18:17;;;;;;;2.53;0.90;;;;;;;;;;4991597;28;20230;-78
2022/11/07 16:21:21;;;;;;;3.67;1.03;;;;;;;;;;4993459;28;20225;-78
2022/11/07 16:24:25;;;;;;;2.93;0.87;;;;;;;;;;4991904;28;20190;-78
2022/11/07 16:27:29;;;;;;;5.50;0.90;;;;;;;;;;4988708;28;20530;-78
2022/11/07 16:30:33;;;;;;;2.80;0.90;;;;;;;;;;4994781;28;20186;-78
2022/11/07 16:33:37;;;;;;;2.87;0.80;;;;;;;;;;4992412;28;20214;-78
2022/11/07 16:36:42;;;;;;;2.60;0.97;;;;;;;;;;4986916;28;20214;-78
2022/11/07 16:39:46;;;;;;;3.50;0.80;;;;;;;;;;4985055;28;20198;-79
2022/11/07 16:42:50;;;;;;;5.23;1.33;;;;;;;;;;4976082;28;20565;-77
2022/11/07 16:45:55;;;;;;;5.83;1.40;;;;;;;;;;4971003;28;20633;-77
2022/11/07 16:49:11;;;;;;;1.40;1.20;;;;;;;;;;4995804;28;20186;-78
2022/11/07 16:52:18;;;;;;;1.63;0.97;;;;;;;;;;4985827;28;20226;-76
2022/11/07 16:55:23;;;;;;;1.57;1.00;;;;;;;;;;4986249;28;20527;-77
2022/11/07 16:58:33;;;;;;;2.60;0.90;;;;;;;;;;4986118;28;20218;-78
2022/11/07 17:01:38;;;;;;;1.83;1.00;;;;;;;;;;4995983;28;20689;-78
2022/11/07 17:04:42;;;;;;;2.03;1.00;;;;;;;;;;4996065;28;20183;-78
2022/11/07 17:07:48;;;;;;;1.20;0.90;;;;;;;;;;4997092;28;20186;-78
2022/11/07 17:10:53;;;;;;;4.03;1.00;;;;;;;;;;4996680;28;20692;-78
2022/11/07 17:13:58;;;;;;;1.87;0.70;;;;;;;;;;4984159;28;20550;-78
2022/11/07 17:17:03;;;;;;;3.50;0.90;;;;;;;;;;4983963;28;20210;-77
2022/11/07 17:20:19;;;;;;;3.73;1.20;;;;;;;;;;4995916;28;20182;-77
2022/11/07 17:23:23;;;;;;;5.50;1.00;;;;;;;;;;4995430;28;20182;-77
2022/11/07 17:26:37;;;;;;;2.33;1.00;;;;;;;;;;4988361;28;20178;-78
2022/11/07 17:29:41;;;;;;;3.53;0.90;;;;;;;;;;5001666;28;20210;-78
2022/11/07 17:32:45;;;;;;;1.93;0.90;;;;;;;;;;4999988;28;20234;-78
2022/11/07 17:35:53;;;;;;;0.80;0.70;;;;;;;;;;4995312;28;20190;-76
2022/11/07 17:38:59;;;;;;;2.37;1.00;;;;;;;;;;4966306;28;20179;-77
2022/11/07 17:42:03;;;;;;;2.50;0.90;;;;;;;;;;4964365;28;20222;-78
2022/11/07 17:45:08;;;;;;;2.33;1.00;;;;;;;;;;4982041;28;20202;-78
2022/11/07 17:48:12;;;;;;;5.40;1.30;;;;;;;;;;4992938;28;20217;-78
2022/11/07 17:51:16;;;;;;;1.77;1.23;;;;;;;;;;4978653;28;20705;-77
2022/11/07 17:54:21;;;;;;;2.83;0.80;;;;;;;;;;4976202;28;20235;-77
2022/11/07 17:57:25;;;;;;;2.03;1.00;;;;;;;;;;4976245;28;20214;-77
2022/11/07 18:00:29;;;;;;;2.40;1.03;;;;;;;;;;4975284;28;20610;-77
2022/11/07 18:03:33;;;;;;;2.10;1.00;;;;;;;;;;4991231;28;20183;-78
2022/11/07 18:06:39;;;;;;;3.33;0.93;;;;;;;;;;4975359;28;20183;-77
2022/11/07 18:09:43;;;;;;;2.67;1.10;;;;;;;;;;4975806;28;20182;-77
2022/11/07 18:12:48;;;;;;;1.70;1.00;;;;;;;;;;4989242;28;20230;-78
2022/11/07 18:15:52;;;;;;;1.77;1.10;;;;;;;;;;4994459;28;20225;-77
2022/11/07 18:18:58;;;;;;;3.07;1.13;;;;;;;;;;4983175;28;20214;-77
2022/11/07 18:22:03;;;;;;;3.67;1.17;;;;;;;;;;4994277;28;20221;-77
2022/11/07 18:25:08;;;;;;;1.60;0.90;;;;;;;;;;4994231;28;20206;-76
2022/11/07 18:28:12;;;;;;;1.93;1.07;;;;;;;;;;4981230;28;20209;-77
2022/11/07 18:31:20;;;;;;;2.40;1.30;;;;;;;;;;5013895;23;20233;-86
2022/11/07 18:34:24;;;;;;;3.40;1.00;;;;;;;;;;4973423;28;20183;-85
2022/11/07 18:37:28;;;;;;;2.37;0.90;;;;;;;;;;4972310;28;20213;-85
2022/11/07 18:40:32;;;;;;;2.13;1.20;;;;;;;;;;4971953;28;20230;-85
2022/11/07 18:43:37;;;;;;;3.10;1.00;;;;;;;;;;4983078;28;20632;-85
2022/11/07 18:46:42;;;;;;;11.07;1.20;;;;;;;;;;4988061;28;20213;-85
2022/11/07 18:49:46;;;;;;;3.07;1.10;;;;;;;;;;4960549;28;20530;-85
2022/11/07 18:52:51;;;;;;;2.90;0.97;;;;;;;;;;4971792;28;20202;-85
2022/11/07 18:56:04;;;;;;;7.43;1.10;;;;;;;;;;4950262;28;20683;-85